Sunday, June 17, 2018, 10:10 PM EDT
Back to Local

KHVN, Tweed-new Haven Airport

Location: East Haven, CT, United States Lat: 41.267
Local Time: 10:10 PM EDT ( 2:10 GMT) Lon: -72.883
Time Zone: US/Eastern Elev: 13 ft

Show me the last for .
Show Decoded

2018-06-17 21:53 METAR KHVN 180153Z 20003KT 10SM CLR 19/16 A3007 RMK AO2 SLP182 T01940156 =
2018-06-17 20:53 METAR KHVN 180053Z 21005KT 10SM CLR 22/15 A3007 RMK AO2 SLP181 T02220150 =
2018-06-17 19:53 METAR KHVN 172353Z 19007KT 10SM CLR 23/15 A3007 RMK AO2 SLP181 T02280150 10294
                 20228 50001 =
2018-06-17 18:53 METAR KHVN 172253Z 18008KT 10SM CLR 25/16 A3007 RMK AO2 SLP181 T02500161 =
2018-06-17 17:53 METAR KHVN 172153Z 13005KT 10SM CLR 29/11 A3006 RMK AO2 SLP180 T02890111 =
2018-06-17 16:53 METAR KHVN 172053Z 17007KT 10SM CLR 28/14 A3006 RMK AO2 SLP180 T02780139 55001 =
2018-06-17 15:53 METAR KHVN 171953Z 22005KT 10SM CLR 29/12 A3006 RMK AO2 SLP179 T02890122 =
2018-06-17 14:53 METAR KHVN 171853Z 17008KT 10SM CLR 28/13 A3006 RMK AO2 SLP179 T02780128 =
2018-06-17 13:53 METAR KHVN 171753Z 16007KT 10SM CLR 27/14 A3007 RMK AO2 SLP181 T02670139 10272
                 20211 58010 =
2018-06-17 12:53 METAR KHVN 171653Z 19006KT 10SM FEW040 FEW250 24/16 A3008 RMK AO2 SLP184
                 T02440156 =
2018-06-17 11:53 METAR KHVN 171553Z 21005KT 10SM FEW250 24/15 A3009 RMK AO2 SLP189 T02390150 =
2018-06-17 10:53 METAR KHVN 171453Z 18006KT 10SM CLR 24/16 A3010 RMK AO2 SLP191 T02440156 53010 =
2018-06-17 09:53 METAR KHVN 171353Z 26004KT 10SM FEW250 24/16 A3008 RMK AO2 SLP184 T02440156 =
2018-06-17 08:53 METAR KHVN 171253Z VRB04KT 10SM FEW250 24/14 A3007 RMK AO2 SLP182 T02390144 =
2018-06-17 07:53 METAR KHVN 171153Z 02004KT 10SM FEW250 21/13 A3007 RMK AO2 SLP182 T02110133
                 10211 20128 51012 =
2018-06-17 06:53 METAR KHVN 171053Z 00000KT 10SM FEW250 18/14 A3006 RMK AO2 SLP179 T01780139 =
2018-06-17 05:53 METAR KHVN 170953Z 00000KT 10SM FEW250 14/12 A3005 RMK AO2 SLP174 T01440122 =
2018-06-17 04:53 METAR KHVN 170853Z AUTO 00000KT 10SM CLR 13/12 A3003 RMK AO2 SLP169 T01330122
                 50002 =
2018-06-17 03:53 METAR KHVN 170753Z AUTO 00000KT 10SM CLR 14/12 A3004 RMK AO2 SLP171 T01440122 =
2018-06-17 02:53 METAR KHVN 170653Z AUTO 00000KT 10SM CLR 15/12 A3003 RMK AO2 SLP170 T01500122 =
2018-06-17 01:53 METAR KHVN 170553Z AUTO 00000KT 10SM CLR 15/12 A3003 RMK AO2 SLP167 T01500122
                 10244 20144 50000 =
2018-06-17 00:53 METAR KHVN 170453Z AUTO 18003KT 10SM CLR 16/12 A3003 RMK AO2 SLP169 T01610122
                 402720128 =
2018-06-16 23:53 METAR KHVN 170353Z AUTO 00000KT 10SM CLR 20/12 A3004 RMK AO2 SLP172 T02000122 =
2018-06-16 22:53 METAR KHVN 170253Z AUTO 00000KT 10SM CLR 19/13 A3003 RMK AO2 SLP167 T01940133
                 51016 =

Support USWX by starting your Amazon purchase here.